Time;durP1;ratioP1;P1;durP2;ratioP2;P2;SDS_P1;SDS_P2;PMS_P1;PMS_P2;Temp;Humidity;BMP_temperature;BMP_pressure;BME280_temperature;BME280_humidity;BME280_pressure;Samples;Min_cycle;Max_cycle;Signal;HPM_P1;HPM_P2
2021/12/20 00:04:32;;;;;;;12.27;2.87;;;;;;;8.29;59.37;101544.59;10312296;28;20649;-80
2021/12/20 00:09:34;;;;;;;7.97;2.50;;;;;;;9.13;57.12;101537.63;10306828;28;20242;-81
2021/12/20 00:14:36;;;;;;;8.93;3.07;;;;;;;8.92;57.16;101522.81;10321641;28;20673;-80
2021/12/20 00:19:38;;;;;;;7.53;2.23;;;;;;;9.24;56.25;101513.19;10313261;28;20276;-81
2021/12/20 00:24:41;;;;;;;11.00;2.90;;;;;;;9.40;54.48;101514.84;10328952;28;20304;-80
2021/12/20 00:29:43;;;;;;;8.60;2.70;;;;;;;8.19;59.60;101519.38;10330648;28;20241;-82
2021/12/20 00:34:46;;;;;;;9.77;2.60;;;;;;;9.47;55.43;101515.38;10311431;28;20632;-81
2021/12/20 00:45:10;;;;;;;11.67;2.20;;;;;;;9.15;57.08;101526.13;10332822;28;20249;-81
2021/12/20 00:50:15;;;;;;;6.90;2.70;;;;;;;9.56;56.39;101519.31;10329318;28;20206;-78
2021/12/20 00:55:18;;;;;;;8.33;2.77;;;;;;;9.42;56.42;101512.59;10314366;28;20230;-79
2021/12/20 01:00:23;;;;;;;12.43;3.07;;;;;;;9.58;56.30;101522.66;10315477;28;20245;-78
2021/12/20 01:05:26;;;;;;;12.73;2.87;;;;;;;9.47;55.49;101514.53;10311824;28;20316;-81
2021/12/20 01:10:30;;;;;;;9.47;2.70;;;;;;;9.58;55.28;101528.25;10327333;28;20229;-81
2021/12/20 01:15:41;;;;;;;10.77;2.53;;;;;;;9.06;56.47;101525.03;10313098;28;20607;-82
2021/12/20 01:20:43;;;;;;;9.83;2.47;;;;;;;9.15;56.67;101528.94;10294717;28;20280;-81
2021/12/20 01:25:46;;;;;;;14.30;3.20;;;;;;;9.46;54.92;101518.44;10296532;28;20307;-78
2021/12/20 01:30:48;;;;;;;12.93;3.07;;;;;;;9.65;54.34;101522.34;10323069;28;20561;-79
2021/12/20 01:35:51;;;;;;;8.87;2.10;;;;;;;9.87;53.01;101524.75;10325865;28;20205;-80
2021/12/20 01:40:53;;;;;;;7.87;1.83;;;;;;;9.68;52.94;101525.44;10283659;28;20238;-81
2021/12/20 01:45:55;;;;;;;11.60;2.40;;;;;;;9.53;52.83;101525.44;10294894;28;20258;-81
2021/12/20 01:51:13;;;;;;;12.70;2.03;;;;;;;9.57;53.44;101529.41;10291151;28;20215;-83
2021/12/20 01:56:15;;;;;;;9.53;1.87;;;;;;;8.89;53.71;101526.16;10304994;28;20225;-81
2021/12/20 02:01:21;;;;;;;14.27;2.50;;;;;;;9.63;51.75;101525.44;10292711;28;20324;-79
2021/12/20 02:06:30;;;;;;;12.80;2.27;;;;;;;9.20;52.83;101526.94;10296466;28;20678;-81
2021/12/20 02:11:32;;;;;;;15.77;2.40;;;;;;;9.40;50.77;101528.03;10288062;28;20739;-80
2021/12/20 02:16:35;;;;;;;13.27;2.43;;;;;;;9.10;51.42;101526.97;10343693;28;20229;-80
2021/12/20 02:21:38;;;;;;;16.17;2.20;;;;;;;9.46;50.56;101536.13;10323583;28;20284;-79
2021/12/20 02:26:40;;;;;;;13.20;1.97;;;;;;;9.32;50.79;101535.88;10306578;28;20317;-79
2021/12/20 02:37:26;;;;;;;16.57;2.20;;;;;;;9.37;50.50;101524.66;10297789;28;20668;-80
2021/12/20 02:42:34;;;;;;;14.87;2.87;;;;;;;9.57;49.23;101514.53;10308326;28;20238;-80
2021/12/20 02:47:42;;;;;;;12.60;2.07;;;;;;;9.40;49.38;101514.84;10348156;28;20642;-80
2021/12/20 02:52:45;;;;;;;18.60;2.23;;;;;;;9.42;50.55;101521.00;10323223;28;20225;-79
2021/12/20 02:57:47;;;;;;;13.37;2.10;;;;;;;9.42;49.14;101520.16;10323781;28;20594;-79
2021/12/20 03:02:49;;;;;;;9.23;2.13;;;;;;;9.46;48.28;101524.06;10344874;28;20720;-80
2021/12/20 03:07:53;;;;;;;13.73;2.43;;;;;;;9.38;49.11;101522.69;10354729;28;20256;-79
2021/12/20 03:12:56;;;;;;;10.80;2.33;;;;;;;9.34;48.17;101519.63;10339198;28;20269;-79
2021/12/20 03:17:58;;;;;;;13.13;1.83;;;;;;;9.22;47.85;101512.63;10331193;28;20256;-79
2021/12/20 03:23:01;;;;;;;17.53;2.50;;;;;;;9.07;48.09;101521.06;10323585;28;20253;-79
2021/12/20 03:28:03;;;;;;;12.20;3.13;;;;;;;9.14;47.85;101519.69;10342218;28;20284;-79
2021/12/20 03:33:05;;;;;;;18.37;2.73;;;;;;;9.41;48.34;101526.91;10341372;28;20542;-80
2021/12/20 03:38:09;;;;;;;15.67;2.80;;;;;;;9.40;48.22;101517.66;10330994;28;20198;-79
2021/12/20 03:43:12;;;;;;;14.80;2.30;;;;;;;9.45;49.06;101523.22;10328775;28;20260;-80
2021/12/20 03:48:15;;;;;;;10.47;2.30;;;;;;;9.06;49.30;101522.22;10329865;28;20230;-79
2021/12/20 03:53:17;;;;;;;10.73;2.23;;;;;;;9.41;48.44;101522.13;10331011;28;20194;-80
2021/12/20 03:58:20;;;;;;;11.47;1.97;;;;;;;8.92;49.35;101524.78;10332409;28;20198;-80
2021/12/20 04:03:23;;;;;;;13.33;2.07;;;;;;;9.26;48.90;101519.38;10327517;28;20221;-80
2021/12/20 04:08:25;;;;;;;11.13;2.23;;;;;;;8.72;50.07;101525.59;10321900;28;20222;-80
2021/12/20 04:13:28;;;;;;;13.37;2.20;;;;;;;9.02;49.32;101531.19;10318850;28;20261;-80
2021/12/20 04:18:31;;;;;;;11.60;1.83;;;;;;;8.89;50.61;101531.78;10325216;28;20233;-80
2021/12/20 04:23:36;;;;;;;18.63;2.27;;;;;;;8.59;50.81;101531.78;10310702;28;20238;-80
2021/12/20 04:28:39;;;;;;;13.37;2.87;;;;;;;8.45;51.88;101525.03;10339916;28;20253;-80
2021/12/20 04:33:41;;;;;;;19.77;2.90;;;;;;;8.55;50.96;101525.03;10325960;28;20210;-80
2021/12/20 04:38:44;;;;;;;14.73;2.80;;;;;;;8.74;51.38;101540.19;10314269;28;20201;-80
2021/12/20 04:43:46;;;;;;;10.13;2.40;;;;;;;8.91;49.93;101545.50;10339637;28;20233;-81
2021/12/20 04:48:48;;;;;;;17.90;2.80;;;;;;;8.71;51.37;101549.13;10348397;28;20257;-80
2021/12/20 04:53:51;;;;;;;13.80;2.23;;;;;;;8.26;51.93;101550.75;10327939;28;20272;-80
2021/12/20 04:58:53;;;;;;;16.63;2.97;;;;;;;7.92;52.60;101552.34;10328055;28;20693;-81
2021/12/20 05:03:55;;;;;;;19.13;3.00;;;;;;;7.70;52.84;101548.91;10318955;28;20295;-81
2021/12/20 05:08:57;;;;;;;14.80;2.80;;;;;;;7.96;52.88;101547.88;10322827;28;20229;-80
2021/12/20 05:14:01;;;;;;;19.50;2.67;;;;;;;8.31;52.08;101545.16;10331882;28;20563;-81
2021/12/20 05:19:04;;;;;;;14.73;3.17;;;;;;;8.27;51.57;101546.84;10328615;28;20609;-79
2021/12/20 05:24:07;;;;;;;20.43;3.97;;;;;;;8.04;51.75;101550.13;10303363;28;20259;-80
2021/12/20 05:29:09;;;;;;;17.07;2.87;;;;;;;8.07;51.46;101557.97;10328324;28;20219;-81
2021/12/20 05:34:11;;;;;;;19.50;3.77;;;;;;;7.63;52.30;101560.34;10316150;28;20231;-80
2021/12/20 05:39:13;;;;;;;15.70;3.80;;;;;;;7.49;52.91;101562.78;10326169;28;20201;-81
2021/12/20 05:44:16;;;;;;;19.70;3.27;;;;;;;7.43;52.73;101566.66;10325180;28;20291;-82
2021/12/20 05:49:18;;;;;;;17.27;2.87;;;;;;;7.46;53.15;101577.31;10330481;28;20245;-81
2021/12/20 05:54:21;;;;;;;16.97;3.10;;;;;;;7.61;53.14;101575.72;10308313;28;20218;-80
2021/12/20 05:59:23;;;;;;;15.50;3.13;;;;;;;7.39;53.00;101587.88;10325411;28;20225;-81
2021/12/20 06:04:25;;;;;;;15.00;2.80;;;;;;;7.17;52.62;101589.97;10328598;28;20341;-80
2021/12/20 06:09:28;;;;;;;19.47;3.10;;;;;;;6.82;54.01;101585.78;10309963;28;20651;-81
2021/12/20 06:14:30;;;;;;;16.20;2.33;;;;;;;7.06;53.58;101585.41;10325568;28;20233;-80
2021/12/20 06:19:33;;;;;;;21.23;3.27;;;;;;;6.88;54.55;101598.66;10323918;28;20605;-79
2021/12/20 06:24:37;;;;;;;17.43;2.80;;;;;;;6.98;53.74;101602.66;10329784;28;20268;-80
2021/12/20 06:29:39;;;;;;;18.83;3.40;;;;;;;7.11;53.78;101599.41;10326787;28;20311;-80
2021/12/20 06:34:41;;;;;;;11.97;2.20;;;;;;;7.09;53.49;101610.03;10335239;28;20245;-80
2021/12/20 06:39:43;;;;;;;16.33;3.20;;;;;;;6.85;54.14;101613.16;10335463;28;20284;-80
2021/12/20 06:44:45;;;;;;;16.40;3.53;;;;;;;6.86;53.64;101633.56;10341710;28;20276;-80
2021/12/20 06:49:48;;;;;;;9.87;2.47;;;;;;;6.98;53.90;101633.41;10347289;28;20754;-80
2021/12/20 06:54:52;;;;;;;14.97;2.93;;;;;;;6.73;54.13;101631.19;10340572;28;20193;-80
2021/12/20 06:59:54;;;;;;;14.93;3.57;;;;;;;6.73;53.14;101626.44;10327543;28;20268;-80
2021/12/20 07:04:56;;;;;;;15.40;2.77;;;;;;;6.63;54.17;101619.94;10325715;28;20325;-80
2021/12/20 07:09:58;;;;;;;12.03;2.70;;;;;;;6.45;54.72;101624.81;10325488;28;20296;-81
2021/12/20 07:15:01;;;;;;;12.67;3.13;;;;;;;6.77;53.42;101624.81;10321020;28;20260;-80
2021/12/20 07:20:04;;;;;;;14.97;2.80;;;;;;;6.58;54.11;101637.50;10330949;28;20213;-80
2021/12/20 07:25:07;;;;;;;13.33;2.97;;;;;;;6.52;53.01;101646.91;10325938;28;20304;-81
2021/12/20 07:30:10;;;;;;;15.67;3.43;;;;;;;6.38;53.82;101646.47;10323581;28;20267;-80
2021/12/20 07:35:12;;;;;;;14.83;3.07;;;;;;;6.33;53.82;101651.19;10317927;28;20229;-81
2021/12/20 07:40:15;;;;;;;17.50;3.10;;;;;;;6.42;53.74;101647.66;10306837;28;20304;-80
2021/12/20 07:45:17;;;;;;;9.57;2.67;;;;;;;6.32;53.88;101653.13;10322821;28;20283;-81
2021/12/20 07:50:22;;;;;;;20.97;4.03;;;;;;;6.07;55.28;101662.00;10340635;28;20811;-82
2021/12/20 07:55:25;;;;;;;16.43;3.57;;;;;;;6.27;53.86;101663.38;10320896;28;21331;-82
2021/12/20 08:00:28;;;;;;;10.10;3.53;;;;;;;6.18;54.23;101670.53;10303508;28;20626;-81
2021/12/20 08:05:30;;;;;;;15.77;3.77;;;;;;;6.11;53.76;101663.19;10323740;28;21487;-82
2021/12/20 08:10:33;;;;;;;20.37;4.37;;;;;;;6.20;54.07;101665.53;10321758;28;20287;-82
2021/12/20 08:15:35;;;;;;;22.73;3.97;;;;;;;6.41;54.20;101678.63;10318854;28;20310;-81
2021/12/20 08:20:38;;;;;;;13.77;3.80;;;;;;;6.36;53.73;101675.75;10315303;28;20262;-82
2021/12/20 08:25:42;;;;;;;21.07;4.40;;;;;;;6.43;53.79;101680.06;10318140;28;20251;-81
2021/12/20 08:30:44;;;;;;;17.30;4.93;;;;;;;6.53;54.06;101679.31;10329939;28;20597;-81
2021/12/20 08:35:49;;;;;;;21.30;6.33;;;;;;;6.49;53.79;101684.56;10312674;28;20225;-81
2021/12/20 08:40:51;;;;;;;14.17;4.13;;;;;;;6.75;53.28;101696.84;10327055;28;20230;-82
2021/12/20 08:45:54;;;;;;;18.73;5.10;;;;;;;6.51;54.07;101706.66;10338961;28;20653;-86
2021/12/20 08:51:01;;;;;;;19.23;5.23;;;;;;;6.69;53.68;101695.13;10341051;28;20237;-82
2021/12/20 08:56:04;;;;;;;19.03;5.70;;;;;;;6.82;54.70;101714.28;10324343;28;20234;-84
2021/12/20 09:01:06;;;;;;;23.37;5.40;;;;;;;7.10;54.02;101710.34;10321582;28;20273;-82
2021/12/20 09:06:08;;;;;;;17.53;4.63;;;;;;;7.00;54.17;101715.81;10304407;28;20261;-84
2021/12/20 09:11:11;;;;;;;28.40;5.73;;;;;;;6.95;54.91;101720.53;10325338;28;20229;-84
2021/12/20 09:16:14;;;;;;;23.03;4.10;;;;;;;7.37;54.49;101727.09;10323236;28;20234;-83
2021/12/20 09:21:16;;;;;;;17.70;5.33;;;;;;;7.34;54.72;101727.66;10328008;28;20253;-83
2021/12/20 09:26:20;;;;;;;18.53;5.27;;;;;;;7.59;53.68;101730.66;10311441;28;20218;-81
2021/12/20 09:31:22;;;;;;;19.97;4.93;;;;;;;7.78;52.88;101733.00;10329869;28;20277;-80
2021/12/20 09:36:29;;;;;;;14.40;4.10;;;;;;;7.77;52.82;101734.94;10333272;28;20205;-81
2021/12/20 09:46:39;;;;;;;15.80;4.70;;;;;;;8.11;51.50;101738.25;10329604;28;20304;-81
2021/12/20 09:51:41;;;;;;;14.70;4.13;;;;;;;7.73;52.50;101733.81;10315790;28;20218;-81
2021/12/20 09:56:44;;;;;;;20.47;3.90;;;;;;;7.95;51.15;101730.88;10333366;28;20564;-82
2021/12/20 10:01:47;;;;;;;24.13;4.07;;;;;;;7.80;50.48;101730.78;10309848;28;20329;-80
2021/12/20 10:06:51;;;;;;;14.20;3.80;;;;;;;8.15;49.62;101728.19;10323314;28;20258;-81
2021/12/20 10:12:21;;;;;;;16.77;4.23;;;;;;;8.39;49.07;101733.38;10326776;28;20334;-82
2021/12/20 10:17:26;;;;;;;20.37;5.50;;;;;;;7.89;50.87;101732.78;10324525;28;20595;-81
2021/12/20 10:22:29;;;;;;;16.07;5.03;;;;;;;8.03;50.23;101729.50;10337009;28;20233;-81
2021/12/20 10:27:36;;;;;;;17.97;4.63;;;;;;;8.28;49.53;101724.91;10313046;28;20259;-81
2021/12/20 10:32:43;;;;;;;20.37;4.23;;;;;;;8.44;49.24;101730.59;10362769;28;20260;-81
2021/12/20 10:37:46;;;;;;;16.03;3.67;;;;;;;8.66;48.61;101728.47;10309338;28;20257;-80
2021/12/20 10:42:49;;;;;;;13.80;4.83;;;;;;;8.69;48.07;101724.25;10316689;28;20234;-81
2021/12/20 10:47:52;;;;;;;18.03;3.73;;;;;;;8.29;49.12;101726.59;10327926;28;20775;-80
2021/12/20 10:53:11;;;;;;;11.67;3.63;;;;;;;8.76;49.08;101727.63;10290479;28;20245;-80
2021/12/20 10:58:38;;;;;;;16.90;4.93;;;;;;;8.78;48.62;101731.84;10311135;28;20206;-80
2021/12/20 11:03:42;;;;;;;23.43;4.90;;;;;;;8.06;49.46;101728.97;10301224;28;20299;-79
2021/12/20 11:14:07;;;;;;;15.57;4.43;;;;;;;8.51;49.17;101726.44;10320518;28;20229;-81
2021/12/20 11:19:17;;;;;;;17.60;4.43;;;;;;;8.56;48.94;101723.66;10307237;28;20626;-84
2021/12/20 11:24:22;;;;;;;15.50;3.87;;;;;;;8.29;47.94;101723.78;10320714;28;20309;-83
2021/12/20 11:29:26;;;;;;;15.33;4.13;;;;;;;8.35;47.17;101715.41;10321487;28;20319;-82
2021/12/20 11:34:32;;;;;;;16.97;4.43;;;;;;;8.02;48.75;101708.28;10318643;28;20206;-81
2021/12/20 11:39:34;;;;;;;14.33;4.30;;;;;;;8.73;47.89;101711.38;10332037;28;20288;-83
2021/12/20 11:44:37;;;;;;;11.13;2.93;;;;;;;8.85;44.95;101711.97;10306674;28;20245;-81
2021/12/20 11:49:39;;;;;;;14.60;3.63;;;;;;;8.72;45.55;101709.69;10321484;28;20265;-83
2021/12/20 11:54:45;;;;;;;15.50;4.10;;;;;;;8.48;48.35;101703.75;10317670;28;20222;-81
2021/12/20 11:59:49;;;;;;;16.40;4.07;;;;;;;9.07;44.73;101703.31;10330789;28;20242;-82
2021/12/20 12:05:07;;;;;;;10.63;3.80;;;;;;;8.82;45.77;101702.13;10320844;28;20299;-80
2021/12/20 12:10:17;;;;;;;16.83;3.47;;;;;;;8.95;43.77;101696.00;10321676;28;20323;-81
2021/12/20 12:15:39;;;;;;;9.60;2.40;;;;;;;8.37;40.86;101699.19;10317787;28;20871;-83
2021/12/20 12:20:46;;;;;;;6.30;1.67;;;;;;;9.19;38.60;101693.50;10325081;28;20308;-80
2021/12/20 12:25:53;;;;;;;5.50;2.23;;;;;;;8.86;38.67;101683.66;10302619;28;20315;-81
2021/12/20 12:31:03;;;;;;;7.20;1.50;;;;;;;8.91;37.18;101685.66;10322766;28;20722;-81
2021/12/20 12:36:24;;;;;;;5.47;1.10;;;;;;;8.61;37.76;101687.25;10326249;28;20232;-79
2021/12/20 12:41:28;;;;;;;6.60;1.20;;;;;;;8.77;37.09;101690.09;10327799;28;20226;-81
2021/12/20 12:46:36;;;;;;;5.60;0.70;;;;;;;8.49;37.01;101683.00;10323445;28;20238;-81
2021/12/20 12:51:39;;;;;;;5.33;1.10;;;;;;;8.91;37.82;101692.09;10312221;28;20319;-82
2021/12/20 12:56:42;;;;;;;4.47;0.83;;;;;;;7.77;40.08;101693.00;10327431;28;20241;-82
2021/12/20 13:01:56;;;;;;;5.10;1.13;;;;;;;8.97;37.59;101690.97;10312917;28;20607;-81
2021/12/20 13:07:01;;;;;;;5.43;1.20;;;;;;;9.02;36.43;101690.13;10325042;28;20315;-80
2021/12/20 13:12:09;;;;;;;6.03;1.20;;;;;;;7.84;39.12;101699.22;10320795;28;20237;-80
2021/12/20 13:17:11;;;;;;;4.93;1.10;;;;;;;8.22;38.35;101694.34;10348262;28;20241;-82
2021/12/20 13:22:13;;;;;;;5.40;1.13;;;;;;;8.75;38.09;101687.56;10324852;28;20256;-81
2021/12/20 13:27:16;;;;;;;4.77;1.10;;;;;;;8.40;37.88;101687.47;10326372;28;20253;-84
2021/12/20 13:32:19;;;;;;;5.13;1.47;;;;;;;8.72;37.22;101682.50;10321063;28;20229;-82
2021/12/20 13:37:31;;;;;;;5.47;1.23;;;;;;;8.68;37.72;101680.53;10333188;28;20270;-83
2021/12/20 13:42:47;;;;;;;5.83;1.40;;;;;;;8.15;38.58;101683.41;10327953;28;20254;-82
2021/12/20 13:47:49;;;;;;;5.07;1.40;;;;;;;8.16;37.19;101684.25;10325040;28;20724;-83
2021/12/20 13:52:52;;;;;;;7.20;1.30;;;;;;;8.72;37.62;101676.91;10311514;28;20563;-82
2021/12/20 13:57:54;;;;;;;9.23;1.77;;;;;;;8.58;36.35;101684.16;10338346;28;20591;-84
2021/12/20 14:03:00;;;;;;;3.70;1.20;;;;;;;8.49;37.32;101678.25;10313449;28;20716;-82
2021/12/20 14:08:02;;;;;;;7.00;1.50;;;;;;;8.26;37.30;101684.31;10289801;28;20245;-82
2021/12/20 14:13:07;;;;;;;7.20;1.70;;;;;;;8.28;38.07;101682.91;10328909;28;20252;-82
2021/12/20 14:18:26;;;;;;;5.70;2.03;;;;;;;8.08;39.60;101677.22;10313975;28;20229;-83
2021/12/20 14:23:31;;;;;;;7.20;2.00;;;;;;;8.01;39.77;101671.03;10308030;28;20233;-83
2021/12/20 14:28:36;;;;;;;6.83;2.10;;;;;;;8.16;39.40;101681.44;10342436;28;20253;-83
2021/12/20 14:33:50;;;;;;;8.03;2.00;;;;;;;8.07;41.17;101680.28;10321499;28;20202;-82
2021/12/20 14:38:54;;;;;;;11.83;2.80;;;;;;;7.89;41.11;101678.81;10314868;28;20280;-85
2021/12/20 14:44:02;;;;;;;7.70;3.00;;;;;;;8.10;41.74;101686.19;10321892;28;20209;-80
2021/12/20 14:49:37;;;;;;;13.50;4.43;;;;;;;7.89;42.69;101684.41;10302335;28;20285;-82
2021/12/20 14:54:42;;;;;;;16.40;6.53;;;;;;;8.14;43.33;101676.16;10311094;28;20263;-81
2021/12/20 14:59:51;;;;;;;15.53;6.03;;;;;;;7.84;44.76;101676.81;10318750;28;20233;-81
2021/12/20 15:04:54;;;;;;;12.17;6.00;;;;;;;7.51;46.69;101675.19;10302785;28;21033;-83
2021/12/20 15:09:57;;;;;;;20.13;6.50;;;;;;;7.58;46.49;101684.22;10326367;28;20591;-85
2021/12/20 15:14:59;;;;;;;18.87;6.30;;;;;;;7.46;46.97;101674.34;10325722;28;20256;-80
2021/12/20 15:20:02;;;;;;;21.40;6.33;;;;;;;7.29;47.55;101673.63;10318993;28;20241;-81
2021/12/20 15:25:05;;;;;;;16.20;5.97;;;;;;;6.81;48.49;101673.47;10321792;28;20295;-80
2021/12/20 15:30:08;;;;;;;10.30;5.17;;;;;;;7.05;47.89;101667.53;10325989;28;20320;-84
2021/12/20 15:35:10;;;;;;;13.80;4.90;;;;;;;7.01;47.75;101677.56;10304930;28;20241;-83
2021/12/20 15:40:13;;;;;;;14.07;5.73;;;;;;;6.69;47.79;101680.31;10328986;28;20221;-85
2021/12/20 15:45:16;;;;;;;14.57;5.07;;;;;;;6.60;48.09;101674.34;10309276;28;20851;-82
2021/12/20 15:50:18;;;;;;;12.00;5.53;;;;;;;6.56;47.98;101675.16;10326308;28;20745;-84
2021/12/20 15:55:20;;;;;;;13.53;5.57;;;;;;;6.64;47.99;101681.09;10321939;28;20287;-83
2021/12/20 16:00:22;;;;;;;13.37;6.27;;;;;;;6.46;48.93;101676.72;10336358;28;20289;-80
2021/12/20 16:05:25;;;;;;;17.73;6.80;;;;;;;6.49;48.56;101675.34;10343524;28;20400;-84
2021/12/20 16:10:30;;;;;;;14.57;5.70;;;;;;;6.34;47.89;101676.00;10326947;28;20280;-81
2021/12/20 16:15:32;;;;;;;14.63;5.87;;;;;;;6.33;48.54;101679.94;10333437;28;20260;-82
2021/12/20 16:20:34;;;;;;;14.73;6.10;;;;;;;6.00;49.49;101683.69;10330557;28;20213;-82
2021/12/20 16:25:40;;;;;;;11.73;5.87;;;;;;;6.00;49.29;101683.69;10311230;28;20276;-81
2021/12/20 16:30:43;;;;;;;11.47;5.40;;;;;;;5.81;49.51;101673.97;10355729;28;20320;-83
2021/12/20 16:35:46;;;;;;;11.93;6.10;;;;;;;5.89;49.26;101681.88;10299166;28;20237;-82
2021/12/20 16:40:50;;;;;;;16.53;5.97;;;;;;;5.87;49.24;101688.81;10328381;28;20237;-82
2021/12/20 16:45:53;;;;;;;8.50;4.67;;;;;;;5.58;50.16;101685.28;10317634;28;20608;-81
2021/12/20 16:51:05;;;;;;;8.83;4.63;;;;;;;5.79;50.00;101688.16;10320393;28;20253;-81
2021/12/20 16:56:08;;;;;;;10.13;5.50;;;;;;;5.45;50.89;101694.84;10337275;28;20256;-81
2021/12/20 17:01:11;;;;;;;7.97;5.23;;;;;;;5.32;50.37;101690.44;10314413;28;20296;-82
2021/12/20 17:06:13;;;;;;;10.67;5.73;;;;;;;5.34;49.50;101693.84;10313247;28;20241;-83
2021/12/20 17:11:15;;;;;;;11.00;6.03;;;;;;;5.22;49.93;101692.22;10292994;28;20584;-82
2021/12/20 17:16:21;;;;;;;9.30;5.80;;;;;;;5.24;49.64;101692.81;10320736;28;20242;-82
2021/12/20 17:21:23;;;;;;;11.20;5.73;;;;;;;5.16;50.03;101688.53;10311392;28;20258;-84
2021/12/20 17:26:27;;;;;;;10.83;6.40;;;;;;;5.08;49.91;101697.28;10328955;28;20574;-83
2021/12/20 17:31:29;;;;;;;12.13;5.77;;;;;;;4.82;51.29;101703.50;10308272;28;20964;-82
2021/12/20 17:36:31;;;;;;;9.10;5.90;;;;;;;5.05;49.94;101709.78;10337540;28;20263;-81
2021/12/20 17:41:34;;;;;;;14.77;6.50;;;;;;;4.96;50.50;101708.50;10344544;28;20230;-83
2021/12/20 17:46:38;;;;;;;12.80;6.03;;;;;;;4.73;50.35;101717.84;10279591;28;20591;-84
2021/12/20 17:51:40;;;;;;;9.50;6.20;;;;;;;4.85;50.85;101711.34;10329130;28;20304;-84
2021/12/20 17:56:45;;;;;;;14.63;6.80;;;;;;;4.94;50.08;101707.91;10300631;28;20230;-84
2021/12/20 18:01:47;;;;;;;12.07;6.60;;;;;;;4.83;50.84;101722.75;10325545;28;20329;-84
2021/12/20 18:06:50;;;;;;;12.80;6.67;;;;;;;4.68;51.41;101728.00;10310034;28;20295;-83
2021/12/20 18:11:53;;;;;;;11.73;7.07;;;;;;;4.50;51.46;101731.84;10316480;28;20280;-81
2021/12/20 18:16:55;;;;;;;11.83;7.13;;;;;;;4.49;50.67;101732.94;10298205;28;20819;-83
2021/12/20 18:21:57;;;;;;;14.07;7.50;;;;;;;4.52;50.68;101738.00;10299732;28;20590;-84
2021/12/20 18:26:59;;;;;;;11.80;8.23;;;;;;;4.45;51.57;101739.25;10306198;28;20246;-83
2021/12/20 18:32:04;;;;;;;13.40;7.80;;;;;;;4.23;51.79;101739.06;10326606;28;20320;-82
2021/12/20 18:37:06;;;;;;;15.37;8.63;;;;;;;4.03;52.84;101751.38;10293382;28;20286;-81
2021/12/20 18:42:09;;;;;;;13.43;7.90;;;;;;;3.91;53.14;101741.38;10308049;28;20615;-81
2021/12/20 18:47:12;;;;;;;15.13;8.57;;;;;;;4.12;51.99;101737.13;10300564;28;20233;-82
2021/12/20 18:52:14;;;;;;;16.20;9.50;;;;;;;4.09;52.65;101740.41;10329251;28;20627;-81
2021/12/20 18:57:17;;;;;;;18.43;10.87;;;;;;;4.24;51.65;101737.97;10365876;28;20252;-81
2021/12/20 19:02:19;;;;;;;18.23;10.20;;;;;;;3.88;52.26;101737.13;10311473;28;20218;-81
2021/12/20 19:07:21;;;;;;;15.83;9.60;;;;;;;3.86;52.47;101733.78;10321527;28;20193;-81
2021/12/20 19:12:24;;;;;;;18.40;11.03;;;;;;;3.81;52.86;101739.22;10319060;28;20225;-82
2021/12/20 19:17:27;;;;;;;19.27;11.20;;;;;;;3.73;52.65;101734.03;10335690;28;20599;-81
2021/12/20 19:22:30;;;;;;;17.00;11.03;;;;;;;3.54;53.05;101740.78;10334746;28;20695;-82
2021/12/20 19:27:32;;;;;;;18.97;11.90;;;;;;;3.42;53.44;101742.72;10322441;28;20246;-81
2021/12/20 19:32:34;;;;;;;18.00;11.60;;;;;;;3.30;52.51;101740.78;10319001;28;20277;-81
2021/12/20 19:37:36;;;;;;;21.37;12.37;;;;;;;3.20;54.42;101740.50;10316479;28;20272;-81
2021/12/20 19:42:39;;;;;;;17.00;10.83;;;;;;;3.07;54.32;101746.28;10315373;28;20558;-81
2021/12/20 19:47:41;;;;;;;16.33;11.00;;;;;;;3.16;54.01;101744.84;10321553;28;20264;-82
2021/12/20 19:52:43;;;;;;;18.70;11.37;;;;;;;2.82;54.19;101731.72;10322899;28;20722;-80
2021/12/20 19:57:45;;;;;;;19.13;10.37;;;;;;;2.81;54.74;101735.59;10314834;28;20280;-82
2021/12/20 20:02:48;;;;;;;12.10;9.27;;;;;;;2.65;54.05;101747.34;10343241;28;20275;-82
2021/12/20 20:07:50;;;;;;;12.50;9.17;;;;;;;2.83;54.04;101733.38;10332455;28;20205;-82
2021/12/20 20:12:57;;;;;;;12.60;9.33;;;;;;;2.49;55.48;101743.28;10319397;28;20638;-81
2021/12/20 20:17:59;;;;;;;12.37;7.77;;;;;;;3.16;53.50;101722.63;10332453;28;20260;-82
2021/12/20 20:23:01;;;;;;;11.73;8.10;;;;;;;3.02;52.67;101735.03;10307477;28;20718;-82
2021/12/20 20:28:04;;;;;;;12.73;7.37;;;;;;;2.92;53.48;101732.00;10322360;28;20657;-82
2021/12/20 20:33:06;;;;;;;9.17;6.77;;;;;;;2.77;54.13;101739.91;10343746;28;20280;-80
2021/12/20 20:38:08;;;;;;;9.37;7.20;;;;;;;2.79;54.25;101744.13;10319895;28;20674;-82
2021/12/20 20:43:11;;;;;;;9.07;6.43;;;;;;;3.19;52.23;101738.81;10307416;28;20210;-80
2021/12/20 20:48:13;;;;;;;8.83;6.80;;;;;;;2.83;52.84;101738.94;10325163;28;20272;-80
2021/12/20 20:53:16;;;;;;;8.73;6.27;;;;;;;2.88;52.32;101739.94;10331921;28;20245;-82
2021/12/20 20:58:19;;;;;;;9.70;7.43;;;;;;;2.77;52.55;101742.69;10333728;28;20202;-80
2021/12/20 21:03:21;;;;;;;11.63;7.27;;;;;;;2.72;53.73;101745.31;10353313;28;20218;-82
2021/12/20 21:08:23;;;;;;;12.20;6.73;;;;;;;2.46;52.91;101747.34;10326131;28;20241;-83
2021/12/20 21:13:25;;;;;;;9.83;6.80;;;;;;;2.68;52.37;101733.00;10317354;28;20276;-82
2021/12/20 21:18:28;;;;;;;10.77;6.90;;;;;;;2.70;52.68;101744.72;10326995;28;20202;-82
2021/12/20 21:23:30;;;;;;;9.33;7.47;;;;;;;2.60;53.19;101740.56;10306829;28;20519;-82
2021/12/20 21:28:32;;;;;;;14.67;7.57;;;;;;;2.43;54.02;101739.53;10324478;28;20202;-81
2021/12/20 21:33:34;;;;;;;11.60;7.60;;;;;;;2.47;53.70;101745.44;10336262;28;20449;-83
2021/12/20 21:38:37;;;;;;;12.53;8.03;;;;;;;2.46;54.32;101744.59;10322087;28;20562;-81
2021/12/20 21:43:39;;;;;;;11.00;7.93;;;;;;;2.22;53.84;101743.59;10299872;28;20195;-80
2021/12/20 21:48:41;;;;;;;13.00;7.73;;;;;;;2.14;54.08;101740.28;10300377;28;20258;-81
2021/12/20 21:53:43;;;;;;;10.93;7.80;;;;;;;1.62;54.17;101739.78;10337506;28;20221;-82
2021/12/20 21:58:46;;;;;;;14.13;8.93;;;;;;;2.09;55.22;101732.66;10333726;28;20508;-82
2021/12/20 22:03:49;;;;;;;17.67;8.93;;;;;;;1.82;55.49;101729.34;10322190;28;20293;-80
2021/12/20 22:08:52;;;;;;;12.47;7.97;;;;;;;1.99;54.53;101737.03;10353641;28;20201;-81
2021/12/20 22:14:07;;;;;;;19.57;9.00;;;;;;;2.15;54.81;101730.91;10315078;28;20603;-81
2021/12/20 22:19:09;;;;;;;41.80;10.03;;;;;;;2.05;55.33;101731.41;10283386;28;20202;-81
2021/12/20 22:24:11;;;;;;;71.57;11.53;;;;;;;1.71;56.34;101724.56;10282104;28;20226;-81
2021/12/20 22:29:14;;;;;;;44.33;9.00;;;;;;;1.70;56.47;101722.84;10314886;28;20206;-81
2021/12/20 22:34:16;;;;;;;48.30;9.57;;;;;;;1.95;55.04;101724.72;10329057;28;20210;-84
2021/12/20 22:39:18;;;;;;;60.90;9.70;;;;;;;1.84;56.71;101718.03;10333527;28;20214;-80
2021/12/20 22:44:21;;;;;;;38.13;10.27;;;;;;;2.00;54.99;101716.56;10312268;28;20211;-83
2021/12/20 22:49:23;;;;;;;51.43;10.40;;;;;;;2.11;55.28;101722.19;10326052;28;20544;-81
2021/12/20 22:54:25;;;;;;;46.57;9.70;;;;;;;1.88;55.80;101699.88;10338411;28;20221;-80
2021/12/20 22:59:27;;;;;;;27.57;9.27;;;;;;;1.94;55.30;101709.16;10315529;28;20221;-80
2021/12/20 23:04:29;;;;;;;20.67;8.83;;;;;;;1.85;55.80;101709.47;10316572;28;20690;-84
2021/12/20 23:09:39;;;;;;;14.07;8.40;;;;;;;1.98;55.76;101707.63;10324888;28;20268;-84
2021/12/20 23:14:42;;;;;;;13.37;7.97;;;;;;;1.87;55.72;101707.34;10338131;28;20217;-82
2021/12/20 23:19:44;;;;;;;14.80;9.33;;;;;;;2.30;54.23;101698.06;10321937;28;20202;-81
2021/12/20 23:24:46;;;;;;;16.80;8.70;;;;;;;2.08;54.71;101702.38;10321580;28;20614;-84
2021/12/20 23:29:48;;;;;;;16.20;8.67;;;;;;;1.94;54.95;101706.41;10336597;28;20281;-82
2021/12/20 23:34:50;;;;;;;14.07;7.83;;;;;;;1.71;54.93;101702.41;10337428;28;20194;-81
2021/12/20 23:39:57;;;;;;;11.67;8.07;;;;;;;1.97;54.53;101697.63;10320872;28;20198;-82
2021/12/20 23:44:59;;;;;;;12.10;9.10;;;;;;;1.93;54.81;101696.38;10340194;28;20320;-82